Time;durP1;ratioP1;P1;durP2;ratioP2;P2;SDS_P1;SDS_P2;PMS_P1;PMS_P2;Temp;Humidity;BMP_temperature;BMP_pressure;BME280_temperature;BME280_humidity;BME280_pressure;Samples;Min_cycle;Max_cycle;Signal;HPM_P1;HPM_P2
2022/05/25 00:01:08;;;;;;;;;;;;;;;;;;5112590;28;19908;-58
2022/05/25 00:03:34;;;;;;;;;;;;;;;;;;5112216;28;19920;-58
2022/05/25 00:06:01;;;;;;;;;;;;;;;;;;5112147;28;19916;-53
2022/05/25 00:08:27;;;;;;;;;;;;;;;;;;5112700;28;20285;-59
2022/05/25 00:10:54;;;;;;;;;;;;;;;;;;5112823;28;20254;-50
2022/05/25 00:13:20;;;;;;;;;;;;;;;;;;5112382;28;19907;-58
2022/05/25 00:15:47;;;;;;;;;;;;;;;;;;5112299;28;19908;-55
2022/05/25 00:18:13;;;;;;;;;;;;;;;;;;5112022;28;19946;-51
2022/05/25 00:20:39;;;;;;;;;;;;;;;;;;5112655;28;19908;-53
2022/05/25 00:23:06;;;;;;;;;;;;;;;;;;5111640;28;20282;-57
2022/05/25 00:25:33;;;;;;;;;;;;;;;;;;5112662;28;20269;-49
2022/05/25 00:27:59;;;;;;;;;;;;;;;;;;5112470;28;19964;-52
2022/05/25 00:30:26;;;;;;;;;;;;;;;;;;5112358;28;19912;-59
2022/05/25 00:32:52;;;;;;;;;;;;;;;;;;5111859;28;19934;-53
2022/05/25 00:35:19;;;;;;;;;;;;;;;;;;5112011;28;19987;-52
2022/05/25 00:37:45;;;;;;;;;;;;;;;;;;5112354;28;19916;-49
2022/05/25 00:40:11;;;;;;;;;;;;;;;;;;5111973;28;19908;-53
2022/05/25 00:42:38;;;;;;;;;;;;;;;;;;5111899;28;19927;-49
2022/05/25 00:45:04;;;;;;;;;;;;;;;;;;5112412;28;19908;-53
2022/05/25 00:47:31;;;;;;;;;;;;;;;;;;5112688;28;20362;-53
2022/05/25 00:49:57;;;;;;;;;;;;;;;;;;5112837;28;19999;-58
2022/05/25 00:52:24;;;;;;;;;;;;;;;;;;5112241;28;19908;-53
2022/05/25 00:54:50;;;;;;;;;;;;;;;;;;5112704;28;19907;-52
2022/05/25 00:57:17;;;;;;;;;;;;;;;;;;5112332;28;19912;-54
2022/05/25 00:59:43;;;;;;;;;;;;;;;;;;5111732;28;20044;-60
2022/05/25 01:02:09;;;;;;;;;;;;;;;;;;5112274;28;20022;-56
2022/05/25 01:04:36;;;;;;;;;;;;;;;;;;5111753;28;20025;-58
2022/05/25 01:07:02;;;;;;;;;;;;;;;;;;5110053;28;19920;-55
2022/05/25 01:09:29;;;;;;;;;;;;;;;;;;5111809;28;20380;-50
2022/05/25 01:11:55;;;;;;;;;;;;;;;;;;5111926;28;20377;-49
2022/05/25 01:14:22;;;;;;;;;;;;;;;;;;5112876;28;19963;-53
2022/05/25 01:16:48;;;;;;;;;;;;;;;;;;5115084;28;19908;-51
2022/05/25 01:19:15;;;;;;;;;;;;;;;;;;5115273;28;19991;-53
2022/05/25 01:21:41;;;;;;;;;;;;;;;;;;5116039;27;19908;-50
2022/05/25 01:24:08;;;;;;;;;;;;;;;;;;5101522;28;19912;-55
2022/05/25 01:26:34;;;;;;;;;;;;;;;;;;5104569;28;19937;-58
2022/05/25 01:29:01;;;;;;;;;;;;;;;;;;5104135;28;19926;-49
2022/05/25 01:31:27;;;;;;;;;;;;;;;;;;5097213;28;19931;-51
2022/05/25 01:33:54;;;;;;;;;;;;;;;;;;5095245;28;20002;-47
2022/05/25 01:36:20;;;;;;;;;;;;;;;;;;5095290;28;19950;-50
2022/05/25 01:38:46;;;;;;;;;;;;;;;;;;5110882;28;20015;-53
2022/05/25 01:41:13;;;;;;;;;;;;;;;;;;5104394;28;19912;-52
2022/05/25 01:43:40;;;;;;;;;;;;;;;;;;5110940;28;19943;-51
2022/05/25 01:46:06;;;;;;;;;;;;;;;;;;5115053;28;20311;-58
2022/05/25 01:48:33;;;;;;;;;;;;;;;;;;5104095;28;19923;-58
2022/05/25 01:50:59;;;;;;;;;;;;;;;;;;5105406;28;19912;-50
2022/05/25 01:53:26;;;;;;;;;;;;;;;;;;5112799;28;19915;-59
2022/05/25 01:55:52;;;;;;;;;;;;;;;;;;5113552;28;19961;-53
2022/05/25 01:58:19;;;;;;;;;;;;;;;;;;5102876;28;19909;-55
2022/05/25 02:00:45;;;;;;;;;;;;;;;;;;5094586;28;20266;-49
2022/05/25 02:05:56;;;;;;;;;;;;;;;;;;5104101;28;19981;-50
2022/05/25 02:08:23;;;;;;;;;;;;;;;;;;5114891;28;20278;-51
2022/05/25 02:10:49;;;;;;;;;;;;;;;;;;5111310;27;19970;-53
2022/05/25 02:13:16;;;;;;;;;;;;;;;;;;5093718;28;19908;-43
2022/05/25 02:15:42;;;;;;;;;;;;;;;;;;5093037;28;20008;-50
2022/05/25 02:18:09;;;;;;;;;;;;;;;;;;5108222;28;19933;-49
2022/05/25 02:20:35;;;;;;;;;;;;;;;;;;5112211;28;19951;-51
2022/05/25 02:23:02;;;;;;;;;;;;;;;;;;5111995;28;20011;-46
2022/05/25 02:25:29;;;;;;;;;;;;;;;;;;5114512;28;19908;-53
2022/05/25 02:27:56;;;;;;;;;;;;;;;;;;5114778;28;19915;-53
2022/05/25 02:30:23;;;;;;;;;;;;;;;;;;5114707;28;20366;-59
2022/05/25 02:32:50;;;;;;;;;;;;;;;;;;5114378;28;19908;-54
2022/05/25 02:35:16;;;;;;;;;;;;;;;;;;5114586;28;19914;-50
2022/05/25 02:37:43;;;;;;;;;;;;;;;;;;5114727;28;20374;-56
2022/05/25 02:40:09;;;;;;;;;;;;;;;;;;5114765;28;20277;-45
2022/05/25 02:42:36;;;;;;;;;;;;;;;;;;5114111;27;20282;-52
2022/05/25 02:45:02;;;;;;;;;;;;;;;;;;5091670;28;20030;-53
2022/05/25 02:47:29;;;;;;;;;;;;;;;;;;5093796;28;19941;-53
2022/05/25 02:49:55;;;;;;;;;;;;;;;;;;5093499;28;19915;-42
2022/05/25 02:52:22;;;;;;;;;;;;;;;;;;5093159;28;19918;-54
2022/05/25 02:54:48;;;;;;;;;;;;;;;;;;5107698;28;19914;-55
2022/05/25 02:57:15;;;;;;;;;;;;;;;;;;5103580;28;19912;-55
2022/05/25 02:59:41;;;;;;;;;;;;;;;;;;5087946;28;19912;-49
2022/05/25 03:02:08;;;;;;;;;;;;;;;;;;5090958;28;20347;-44
2022/05/25 03:04:34;;;;;;;;;;;;;;;;;;5086613;28;19919;-44
2022/05/25 03:07:00;;;;;;;;;;;;;;;;;;5088233;28;19962;-47
2022/05/25 03:09:27;;;;;;;;;;;;;;;;;;5090450;28;19923;-52
2022/05/25 03:11:53;;;;;;;;;;;;;;;;;;5089353;28;19923;-47
2022/05/25 03:14:20;;;;;;;;;;;;;;;;;;5087401;28;20397;-45
2022/05/25 03:16:46;;;;;;;;;;;;;;;;;;5090832;28;20382;-47
2022/05/25 03:19:13;;;;;;;;;;;;;;;;;;5094269;28;20315;-55
2022/05/25 03:21:39;;;;;;;;;;;;;;;;;;5090987;28;20326;-43
2022/05/25 03:24:06;;;;;;;;;;;;;;;;;;5086373;28;20057;-56
2022/05/25 03:26:32;;;;;;;;;;;;;;;;;;5089305;28;20624;-56
2022/05/25 03:28:59;;;;;;;;;;;;;;;;;;5090567;28;20056;-50
2022/05/25 03:31:25;;;;;;;;;;;;;;;;;;5088125;28;19909;-43
2022/05/25 03:33:52;;;;;;;;;;;;;;;;;;5086023;28;19912;-59
2022/05/25 03:36:18;;;;;;;;;;;;;;;;;;5089975;28;19940;-52
2022/05/25 03:38:45;;;;;;;;;;;;;;;;;;5089337;28;19927;-51
2022/05/25 03:41:11;;;;;;;;;;;;;;;;;;5089611;28;19912;-47
2022/05/25 03:43:38;;;;;;;;;;;;;;;;;;5087768;28;19916;-57
2022/05/25 03:46:04;;;;;;;;;;;;;;;;;;5089675;28;19909;-54
2022/05/25 03:48:30;;;;;;;;;;;;;;;;;;5091126;28;20007;-54
2022/05/25 03:50:57;;;;;;;;;;;;;;;;;;5090245;28;19908;-49
2022/05/25 03:53:23;;;;;;;;;;;;;;;;;;5091605;28;19912;-54
2022/05/25 03:55:50;;;;;;;;;;;;;;;;;;5091619;28;19947;-58
2022/05/25 03:58:16;;;;;;;;;;;;;;;;;;5091714;28;19909;-54
2022/05/25 04:00:43;;;;;;;;;;;;;;;;;;5090967;28;19916;-55
2022/05/25 04:03:09;;;;;;;;;;;;;;;;;;5091354;28;19909;-53
2022/05/25 04:05:36;;;;;;;;;;;;;;;;;;5092327;28;19962;-56
2022/05/25 04:08:02;;;;;;;;;;;;;;;;;;5091886;28;19983;-58
2022/05/25 04:10:29;;;;;;;;;;;;;;;;;;5092270;28;19912;-55
2022/05/25 04:12:55;;;;;;;;;;;;;;;;;;5090787;28;19908;-53
2022/05/25 04:15:22;;;;;;;;;;;;;;;;;;5092585;28;20423;-58
2022/05/25 04:17:48;;;;;;;;;;;;;;;;;;5091920;28;20275;-56
2022/05/25 04:20:15;;;;;;;;;;;;;;;;;;5092212;28;20262;-55
2022/05/25 04:22:41;;;;;;;;;;;;;;;;;;5092193;28;19912;-58
2022/05/25 04:25:07;;;;;;;;;;;;;;;;;;5092470;28;19909;-48
2022/05/25 04:27:34;;;;;;;;;;;;;;;;;;5092351;28;19923;-55
2022/05/25 04:30:00;;;;;;;;;;;;;;;;;;5091717;28;20347;-57
2022/05/25 04:32:27;;;;;;;;;;;;;;;;;;5091499;28;20287;-55
2022/05/25 04:34:53;;;;;;;;;;;;;;;;;;5091974;28;20282;-55
2022/05/25 04:40:04;;;;;;;;;;;;;;;;;;5091967;28;19953;-56
2022/05/25 04:42:31;;;;;;;;;;;;;;;;;;5092049;28;19914;-58
2022/05/25 04:45:00;;;;;;;;;;;;;;;;;;5091180;28;19915;-54
2022/05/25 04:47:27;;;;;;;;;;;;;;;;;;5091701;28;19920;-54
2022/05/25 04:49:53;;;;;;;;;;;;;;;;;;5094194;28;19936;-54
2022/05/25 04:52:19;;;;;;;;;;;;;;;;;;5095681;28;19912;-58
2022/05/25 04:54:46;;;;;;;;;;;;;;;;;;5095314;28;19908;-49
2022/05/25 04:57:23;;;;;;;;;;;;;;;;;;5095666;28;19934;-54
2022/05/25 04:59:49;;;;;;;;;;;;;;;;;;5095458;28;19998;-49
2022/05/25 05:02:16;;;;;;;;;;;;;;;;;;5095611;28;19915;-56
2022/05/25 05:04:42;;;;;;;;;;;;;;;;;;5091622;28;19915;-56
2022/05/25 05:07:09;;;;;;;;;;;;;;;;;;5085146;28;20351;-53
2022/05/25 05:09:35;;;;;;;;;;;;;;;;;;5095126;28;19951;-58
2022/05/25 05:12:02;;;;;;;;;;;;;;;;;;5095346;28;19915;-52
2022/05/25 05:14:28;;;;;;;;;;;;;;;;;;5095168;28;19996;-54
2022/05/25 05:16:55;;;;;;;;;;;;;;;;;;5095040;28;19927;-56
2022/05/25 05:19:21;;;;;;;;;;;;;;;;;;5083649;28;19908;-58
2022/05/25 05:21:48;;;;;;;;;;;;;;;;;;5074571;28;19916;-54
2022/05/25 05:24:14;;;;;;;;;;;;;;;;;;5074670;28;20323;-55
2022/05/25 05:26:40;;;;;;;;;;;;;;;;;;5074779;28;20428;-53
2022/05/25 05:29:07;;;;;;;;;;;;;;;;;;5074243;28;19912;-59
2022/05/25 05:31:34;;;;;;;;;;;;;;;;;;5075127;28;19916;-57
2022/05/25 05:34:00;;;;;;;;;;;;;;;;;;5075022;28;19908;-55
2022/05/25 05:36:27;;;;;;;;;;;;;;;;;;5074557;28;19909;-60
2022/05/25 05:38:53;;;;;;;;;;;;;;;;;;5074432;28;19913;-54
2022/05/25 05:41:20;;;;;;;;;;;;;;;;;;5074483;28;19908;-57
2022/05/25 05:43:46;;;;;;;;;;;;;;;;;;5074310;28;19909;-51
2022/05/25 05:46:13;;;;;;;;;;;;;;;;;;5073935;28;19908;-58
2022/05/25 05:48:39;;;;;;;;;;;;;;;;;;5074207;28;19917;-57
2022/05/25 05:51:06;;;;;;;;;;;;;;;;;;5074792;28;20371;-59
2022/05/25 05:53:32;;;;;;;;;;;;;;;;;;5074154;28;20318;-58
2022/05/25 05:55:59;;;;;;;;;;;;;;;;;;5057002;28;20340;-59
2022/05/25 05:58:25;;;;;;;;;;;;;;;;;;5074079;28;19915;-57
2022/05/25 06:00:52;;;;;;;;;;;;;;;;;;5073896;28;19908;-57
2022/05/25 06:03:18;;;;;;;;;;;;;;;;;;5074376;28;19939;-50
2022/05/25 06:05:45;;;;;;;;;;;;;;;;;;5074658;28;19909;-49
2022/05/25 06:08:11;;;;;;;;;;;;;;;;;;5092598;28;20422;-51
2022/05/25 06:10:38;;;;;;;;;;;;;;;;;;5094711;28;19998;-56
2022/05/25 06:13:04;;;;;;;;;;;;;;;;;;5104411;28;19975;-48
2022/05/25 06:21:01;;;;;;;;;;;;;;;;;;5114284;28;19954;-59
2022/05/25 06:23:27;;;;;;;;;;;;;;;;;;5114478;28;19912;-51
2022/05/25 06:25:54;;;;;;;;;;;;;;;;;;5114066;28;19908;-46
2022/05/25 06:28:20;;;;;;;;;;;;;;;;;;5114442;28;19916;-51
2022/05/25 06:30:47;;;;;;;;;;;;;;;;;;5114571;28;19908;-52
2022/05/25 06:33:13;;;;;;;;;;;;;;;;;;5114408;28;19912;-53
2022/05/25 06:35:40;;;;;;;;;;;;;;;;;;5113887;28;19947;-55
2022/05/25 06:38:06;;;;;;;;;;;;;;;;;;5114533;27;19912;-53
2022/05/25 06:40:32;;;;;;;;;;;;;;;;;;5113474;28;19961;-52
2022/05/25 06:42:59;;;;;;;;;;;;;;;;;;5113910;28;19914;-46
2022/05/25 06:45:25;;;;;;;;;;;;;;;;;;5105421;28;19932;-52
2022/05/25 06:47:52;;;;;;;;;;;;;;;;;;5091869;28;19916;-56
2022/05/25 06:50:18;;;;;;;;;;;;;;;;;;5092249;28;20416;-55
2022/05/25 06:52:45;;;;;;;;;;;;;;;;;;5092939;28;20433;-50
2022/05/25 06:55:11;;;;;;;;;;;;;;;;;;5093536;28;20255;-53
2022/05/25 06:57:38;;;;;;;;;;;;;;;;;;5106094;28;19915;-50
2022/05/25 07:00:04;;;;;;;;;;;;;;;;;;5113924;28;19994;-46
2022/05/25 07:02:31;;;;;;;;;;;;;;;;;;5113273;28;19914;-47
2022/05/25 07:04:57;;;;;;;;;;;;;;;;;;5114042;28;20069;-53
2022/05/25 07:07:24;;;;;;;;;;;;;;;;;;5113725;27;19920;-52
2022/05/25 07:09:51;;;;;;;;;;;;;;;;;;5113444;28;19908;-53
2022/05/25 07:12:17;;;;;;;;;;;;;;;;;;5112172;28;19912;-63
2022/05/25 07:14:43;;;;;;;;;;;;;;;;;;5113266;28;19912;-57
2022/05/25 07:17:10;;;;;;;;;;;;;;;;;;5113688;28;19933;-56
2022/05/25 07:19:36;;;;;;;;;;;;;;;;;;5114037;28;19995;-59
2022/05/25 07:22:03;;;;;;;;;;;;;;;;;;5099384;28;19908;-56
2022/05/25 07:24:29;;;;;;;;;;;;;;;;;;5092676;28;19908;-58
2022/05/25 07:26:56;;;;;;;;;;;;;;;;;;5092121;28;20325;-56
2022/05/25 07:29:22;;;;;;;;;;;;;;;;;;5091287;28;19912;-59
2022/05/25 07:31:51;;;;;;;;;;;;;;;;;;5102028;28;19908;-57
2022/05/25 07:34:17;;;;;;;;;;;;;;;;;;5113603;27;19908;-53
2022/05/25 07:36:44;;;;;;;;;;;;;;;;;;5111371;28;20320;-51
2022/05/25 07:39:11;;;;;;;;;;;;;;;;;;5112811;28;19912;-55
2022/05/25 07:41:39;;;;;;;;;;;;;;;;;;5112210;28;19912;-52
2022/05/25 07:44:05;;;;;;;;;;;;;;;;;;5113350;28;19908;-63
2022/05/25 07:46:32;;;;;;;;;;;;;;;;;;5112336;28;19907;-42
2022/05/25 07:48:58;;;;;;;;;;;;;;;;;;5112817;28;20293;-58
2022/05/25 07:51:25;;;;;;;;;;;;;;;;;;5113157;28;19908;-53
2022/05/25 07:53:57;;;;;;;;;;;;;;;;;;5112105;28;19907;-49
2022/05/25 07:56:24;;;;;;;;;;;;;;;;;;5112561;28;20315;-45
2022/05/25 07:58:50;;;;;;;;;;;;;;;;;;5112253;28;20366;-43
2022/05/25 08:01:17;;;;;;;;;;;;;;;;;;5091615;28;19908;-44
2022/05/25 08:06:28;;;;;;;;;;;;;;;;;;5086280;28;19927;-46
2022/05/25 08:08:55;;;;;;;;;;;;;;;;;;5090436;28;19913;-48
2022/05/25 08:11:22;;;;;;;;;;;;;;;;;;5089881;28;19914;-48
2022/05/25 08:13:48;;;;;;;;;;;;;;;;;;5092042;28;19908;-46
2022/05/25 08:16:15;;;;;;;;;;;;;;;;;;5091991;28;19908;-50
2022/05/25 08:18:41;;;;;;;;;;;;;;;;;;5091451;28;19952;-55
2022/05/25 08:21:08;;;;;;;;;;;;;;;;;;5092247;28;20003;-51
2022/05/25 08:23:35;;;;;;;;;;;;;;;;;;5093805;28;20012;-45
2022/05/25 08:26:01;;;;;;;;;;;;;;;;;;5096147;28;19916;-43
2022/05/25 08:28:27;;;;;;;;;;;;;;;;;;5095575;28;19948;-53
2022/05/25 08:30:54;;;;;;;;;;;;;;;;;;5096043;28;19908;-47
2022/05/25 08:33:21;;;;;;;;;;;;;;;;;;5096068;28;20247;-54
2022/05/25 08:35:47;;;;;;;;;;;;;;;;;;5095557;28;19914;-46
2022/05/25 08:38:14;;;;;;;;;;;;;;;;;;5096455;28;19916;-56
2022/05/25 08:40:40;;;;;;;;;;;;;;;;;;5087552;28;19916;-51
2022/05/25 08:43:08;;;;;;;;;;;;;;;;;;5091074;28;20389;-52
2022/05/25 08:45:34;;;;;;;;;;;;;;;;;;5095798;28;19948;-54
2022/05/25 08:48:01;;;;;;;;;;;;;;;;;;5069208;28;20331;-50
2022/05/25 08:50:27;;;;;;;;;;;;;;;;;;5075870;28;20064;-53
2022/05/25 08:52:53;;;;;;;;;;;;;;;;;;5085292;28;19965;-46
2022/05/25 08:55:20;;;;;;;;;;;;;;;;;;5096171;28;20002;-49
2022/05/25 08:57:46;;;;;;;;;;;;;;;;;;5095814;28;19970;-50
2022/05/25 09:00:17;;;;;;;;;;;;;;;;;;5096229;28;19912;-53
2022/05/25 09:02:45;;;;;;;;;;;;;;;;;;5095974;28;19916;-48
2022/05/25 09:05:13;;;;;;;;;;;;;;;;;;5095570;28;19916;-43
2022/05/25 09:07:39;;;;;;;;;;;;;;;;;;5109753;28;20010;-46
2022/05/25 09:10:06;;;;;;;;;;;;;;;;;;5115494;28;20410;-49
2022/05/25 09:12:32;;;;;;;;;;;;;;;;;;5115792;28;19907;-42
2022/05/25 09:14:59;;;;;;;;;;;;;;;;;;5116155;28;19912;-45
2022/05/25 09:17:25;;;;;;;;;;;;;;;;;;5115904;28;19908;-45
2022/05/25 09:19:52;;;;;;;;;;;;;;;;;;5116285;28;19908;-55
2022/05/25 09:22:19;;;;;;;;;;;;;;;;;;5115751;28;19908;-47
2022/05/25 09:24:45;;;;;;;;;;;;;;;;;;5115738;28;19908;-46
2022/05/25 09:27:12;;;;;;;;;;;;;;;;;;5116063;28;20383;-46
2022/05/25 09:29:40;;;;;;;;;;;;;;;;;;5115587;28;19937;-48
2022/05/25 09:32:06;;;;;;;;;;;;;;;;;;5116177;28;19954;-51
2022/05/25 09:34:33;;;;;;;;;;;;;;;;;;5115423;28;19965;-45
2022/05/25 09:36:59;;;;;;;;;;;;;;;;;;5116115;28;19911;-47
2022/05/25 09:39:26;;;;;;;;;;;;;;;;;;5115857;28;19914;-49
2022/05/25 09:41:52;;;;;;;;;;;;;;;;;;5115950;28;19915;-44
2022/05/25 09:44:19;;;;;;;;;;;;;;;;;;5115866;28;19908;-48
2022/05/25 09:46:45;;;;;;;;;;;;;;;;;;5115099;28;19908;-49
2022/05/25 09:49:12;;;;;;;;;;;;;;;;;;5115777;28;19907;-44
2022/05/25 09:51:38;;;;;;;;;;;;;;;;;;5115102;28;19908;-46
2022/05/25 09:54:05;;;;;;;;;;;;;;;;;;5115477;28;19929;-49
2022/05/25 09:56:32;;;;;;;;;;;;;;;;;;5115506;27;19914;-45
2022/05/25 09:58:58;;;;;;;;;;;;;;;;;;5115648;28;19911;-45
2022/05/25 10:01:25;;;;;;;;;;;;;;;;;;5115262;28;20330;-43
2022/05/25 10:03:52;;;;;;;;;;;;;;;;;;5114954;28;19914;-49
2022/05/25 10:06:20;;;;;;;;;;;;;;;;;;5104367;28;19920;-49
2022/05/25 10:08:46;;;;;;;;;;;;;;;;;;5091090;27;20019;-44
2022/05/25 10:11:13;;;;;;;;;;;;;;;;;;5085814;28;20362;-46
2022/05/25 10:13:40;;;;;;;;;;;;;;;;;;5094502;28;20289;-50
2022/05/25 10:16:06;;;;;;;;;;;;;;;;;;5092106;28;19909;-46
2022/05/25 10:18:34;;;;;;;;;;;;;;;;;;5087599;28;19980;-47
2022/05/25 10:21:01;;;;;;;;;;;;;;;;;;5089028;28;19923;-53
2022/05/25 10:23:27;;;;;;;;;;;;;;;;;;5088299;28;20011;-51
2022/05/25 10:25:54;;;;;;;;;;;;;;;;;;5090141;28;19973;-45
2022/05/25 10:28:21;;;;;;;;;;;;;;;;;;5091778;28;19916;-57
2022/05/25 10:39:01;;;;;;;;;;;;;;;;;;5083899;28;19985;-56
2022/05/25 10:41:43;;;;;;;;;;;;;;;;;;5089836;28;19908;-56
2022/05/25 10:44:09;;;;;;;;;;;;;;;;;;5089393;28;20301;-46
2022/05/25 10:46:36;;;;;;;;;;;;;;;;;;5088262;28;19995;-49
2022/05/25 10:49:06;;;;;;;;;;;;;;;;;;5087233;28;19926;-54
2022/05/25 10:51:33;;;;;;;;;;;;;;;;;;5088854;28;19950;-48
2022/05/25 10:56:44;;;;;;;;;;;;;;;;;;5090790;28;19923;-51
2022/05/25 10:59:10;;;;;;;;;;;;;;;;;;5088724;28;19917;-49
2022/05/25 11:01:36;;;;;;;;;;;;;;;;;;5091171;28;19909;-54
2022/05/25 11:04:03;;;;;;;;;;;;;;;;;;5093402;28;19908;-59
2022/05/25 11:06:29;;;;;;;;;;;;;;;;;;5093790;28;20371;-56
2022/05/25 11:08:56;;;;;;;;;;;;;;;;;;5088730;28;20374;-49
2022/05/25 11:11:22;;;;;;;;;;;;;;;;;;5080408;28;19999;-45
2022/05/25 11:13:51;;;;;;;;;;;;;;;;;;5086402;28;19962;-45
2022/05/25 11:16:17;;;;;;;;;;;;;;;;;;5083115;28;20350;-45
2022/05/25 11:18:46;;;;;;;;;;;;;;;;;;5084192;28;20219;-44
2022/05/25 11:21:16;;;;;;;;;;;;;;;;;;5094049;28;19908;-43
2022/05/25 11:23:42;;;;;;;;;;;;;;;;;;5093529;28;19908;-46
2022/05/25 11:26:09;;;;;;;;;;;;;;;;;;5093529;28;19905;-43
2022/05/25 11:28:35;;;;;;;;;;;;;;;;;;5093341;28;20283;-47
2022/05/25 11:31:02;;;;;;;;;;;;;;;;;;5085993;28;20369;-45
2022/05/25 11:33:28;;;;;;;;;;;;;;;;;;5085082;28;19953;-43
2022/05/25 11:35:55;;;;;;;;;;;;;;;;;;5083536;28;19912;-47
2022/05/25 11:38:22;;;;;;;;;;;;;;;;;;5064365;28;20462;-44
2022/05/25 11:40:48;;;;;;;;;;;;;;;;;;5085749;28;19909;-46
2022/05/25 11:43:15;;;;;;;;;;;;;;;;;;5083580;28;19974;-43
2022/05/25 11:45:41;;;;;;;;;;;;;;;;;;5086716;28;19984;-41
2022/05/25 11:48:11;;;;;;;;;;;;;;;;;;5079954;28;20011;-53
2022/05/25 11:50:38;;;;;;;;;;;;;;;;;;5085794;28;20602;-48
2022/05/25 11:53:04;;;;;;;;;;;;;;;;;;5082137;28;19999;-46
2022/05/25 11:55:31;;;;;;;;;;;;;;;;;;5085100;28;19908;-57
2022/05/25 11:57:57;;;;;;;;;;;;;;;;;;5083197;28;19908;-54
2022/05/25 12:00:26;;;;;;;;;;;;;;;;;;5085725;28;19912;-42
2022/05/25 12:02:52;;;;;;;;;;;;;;;;;;5080141;28;20011;-48
2022/05/25 12:05:19;;;;;;;;;;;;;;;;;;5083473;28;19995;-51
2022/05/25 12:07:46;;;;;;;;;;;;;;;;;;5072587;28;19959;-49
2022/05/25 12:10:16;;;;;;;;;;;;;;;;;;5069074;28;20217;-40
2022/05/25 12:12:43;;;;;;;;;;;;;;;;;;5072011;28;19909;-48
2022/05/25 12:15:09;;;;;;;;;;;;;;;;;;5074104;28;20019;-45
2022/05/25 12:17:36;;;;;;;;;;;;;;;;;;5069661;28;20386;-42
2022/05/25 12:20:02;;;;;;;;;;;;;;;;;;5080492;28;19951;-46
2022/05/25 12:22:29;;;;;;;;;;;;;;;;;;5092285;28;19940;-52
2022/05/25 12:24:55;;;;;;;;;;;;;;;;;;5092146;28;19977;-41
2022/05/25 12:27:22;;;;;;;;;;;;;;;;;;5071187;28;19917;-53
2022/05/25 12:29:48;;;;;;;;;;;;;;;;;;5069471;28;20362;-49
2022/05/25 12:32:15;;;;;;;;;;;;;;;;;;5071319;28;20318;-46
2022/05/25 12:34:41;;;;;;;;;;;;;;;;;;5068725;28;20003;-48
2022/05/25 12:37:08;;;;;;;;;;;;;;;;;;5072517;28;19913;-50
2022/05/25 12:39:34;;;;;;;;;;;;;;;;;;5072569;28;19951;-43
2022/05/25 12:42:01;;;;;;;;;;;;;;;;;;5072797;28;19909;-55
2022/05/25 12:49:56;;;;;;;;;;;;;;;;;;5072530;28;19962;-56
2022/05/25 12:52:23;;;;;;;;;;;;;;;;;;5072759;28;20383;-58
2022/05/25 12:54:50;;;;;;;;;;;;;;;;;;5072630;28;20327;-51
2022/05/25 12:57:17;;;;;;;;;;;;;;;;;;5072179;28;20413;-54
2022/05/25 12:59:43;;;;;;;;;;;;;;;;;;5072384;28;19913;-44
2022/05/25 13:02:10;;;;;;;;;;;;;;;;;;5071778;28;20003;-55
2022/05/25 13:04:36;;;;;;;;;;;;;;;;;;5072102;28;19908;-46
2022/05/25 13:07:03;;;;;;;;;;;;;;;;;;5080567;28;19920;-53
2022/05/25 13:09:29;;;;;;;;;;;;;;;;;;5092836;28;19908;-53
2022/05/25 13:11:56;;;;;;;;;;;;;;;;;;5096033;28;19909;-52
2022/05/25 13:14:22;;;;;;;;;;;;;;;;;;5096053;28;19931;-56
2022/05/25 13:16:49;;;;;;;;;;;;;;;;;;5096175;28;20072;-58
2022/05/25 13:19:15;;;;;;;;;;;;;;;;;;5096027;28;19995;-49
2022/05/25 13:21:42;;;;;;;;;;;;;;;;;;5081437;28;19912;-56
2022/05/25 13:24:08;;;;;;;;;;;;;;;;;;5075861;28;19908;-54
2022/05/25 13:26:35;;;;;;;;;;;;;;;;;;5075736;28;19966;-50
2022/05/25 13:29:01;;;;;;;;;;;;;;;;;;5075830;28;19917;-46
2022/05/25 13:31:28;;;;;;;;;;;;;;;;;;5076046;28;19908;-53
2022/05/25 13:33:56;;;;;;;;;;;;;;;;;;5075673;28;19915;-57
2022/05/25 13:36:22;;;;;;;;;;;;;;;;;;5075681;28;19909;-54
2022/05/25 13:38:49;;;;;;;;;;;;;;;;;;5075152;28;19908;-54
2022/05/25 13:41:15;;;;;;;;;;;;;;;;;;5075326;28;19908;-57
2022/05/25 13:43:42;;;;;;;;;;;;;;;;;;5075816;28;19909;-56
2022/05/25 13:46:13;;;;;;;;;;;;;;;;;;5075581;28;19955;-51
2022/05/25 13:48:40;;;;;;;;;;;;;;;;;;5075156;28;20007;-54
2022/05/25 13:51:06;;;;;;;;;;;;;;;;;;5075336;28;19916;-53
2022/05/25 13:53:32;;;;;;;;;;;;;;;;;;5075492;28;19980;-54
2022/05/25 13:55:59;;;;;;;;;;;;;;;;;;5075199;28;19912;-56
2022/05/25 13:58:25;;;;;;;;;;;;;;;;;;5074795;28;19908;-56
2022/05/25 14:00:52;;;;;;;;;;;;;;;;;;5075587;28;19954;-55
2022/05/25 14:03:18;;;;;;;;;;;;;;;;;;5075098;28;19923;-55
2022/05/25 14:05:45;;;;;;;;;;;;;;;;;;5074968;28;19908;-54
2022/05/25 14:08:11;;;;;;;;;;;;;;;;;;5093391;28;19924;-48
2022/05/25 14:10:58;;;;;;;;;;;;;;;;;;5095235;28;19908;-48
2022/05/25 14:13:24;;;;;;;;;;;;;;;;;;5095175;28;20261;-58
2022/05/25 14:15:51;;;;;;;;;;;;;;;;;;5095277;28;19931;-57
2022/05/25 14:18:17;;;;;;;;;;;;;;;;;;5095051;28;19909;-46
2022/05/25 14:20:44;;;;;;;;;;;;;;;;;;5094527;28;19912;-53
2022/05/25 14:23:10;;;;;;;;;;;;;;;;;;5095083;28;19908;-52
2022/05/25 14:25:37;;;;;;;;;;;;;;;;;;5095516;28;20387;-56
2022/05/25 14:28:04;;;;;;;;;;;;;;;;;;5094678;28;20423;-58
2022/05/25 14:30:31;;;;;;;;;;;;;;;;;;5094802;28;19999;-52
2022/05/25 14:32:58;;;;;;;;;;;;;;;;;;5095031;28;19909;-48
2022/05/25 14:35:24;;;;;;;;;;;;;;;;;;5095157;28;19960;-60
2022/05/25 14:37:51;;;;;;;;;;;;;;;;;;5095187;28;19908;-57
2022/05/25 14:40:17;;;;;;;;;;;;;;;;;;5094730;28;20428;-50
2022/05/25 14:42:43;;;;;;;;;;;;;;;;;;5094074;28;19916;-46
2022/05/25 14:45:10;;;;;;;;;;;;;;;;;;5094581;28;19914;-50
2022/05/25 14:47:36;;;;;;;;;;;;;;;;;;5094556;28;19917;-55
2022/05/25 14:50:03;;;;;;;;;;;;;;;;;;5095023;28;19953;-60
2022/05/25 14:52:29;;;;;;;;;;;;;;;;;;5094562;28;19950;-54
2022/05/25 14:54:56;;;;;;;;;;;;;;;;;;5094902;28;20375;-48
2022/05/25 14:57:22;;;;;;;;;;;;;;;;;;5094621;28;20236;-55
2022/05/25 14:59:49;;;;;;;;;;;;;;;;;;5094470;28;19908;-48
2022/05/25 15:02:15;;;;;;;;;;;;;;;;;;5094324;28;19904;-54
2022/05/25 15:04:42;;;;;;;;;;;;;;;;;;5094160;28;19912;-54
2022/05/25 15:07:08;;;;;;;;;;;;;;;;;;5094415;28;19920;-56
2022/05/25 15:09:35;;;;;;;;;;;;;;;;;;5094210;28;20034;-55
2022/05/25 15:12:01;;;;;;;;;;;;;;;;;;5093944;28;19908;-40
2022/05/25 15:19:57;;;;;;;;;;;;;;;;;;5094342;28;19977;-50
2022/05/25 15:22:24;;;;;;;;;;;;;;;;;;5093958;28;19912;-45
2022/05/25 15:24:50;;;;;;;;;;;;;;;;;;5093938;28;19928;-42
2022/05/25 15:27:17;;;;;;;;;;;;;;;;;;5093647;28;19930;-53
2022/05/25 15:29:43;;;;;;;;;;;;;;;;;;5093896;28;19912;-45
2022/05/25 15:32:10;;;;;;;;;;;;;;;;;;5093867;28;19904;-58
2022/05/25 15:34:36;;;;;;;;;;;;;;;;;;5093222;28;19961;-50
2022/05/25 15:37:03;;;;;;;;;;;;;;;;;;5091973;28;19912;-59
2022/05/25 15:39:29;;;;;;;;;;;;;;;;;;5093835;28;19953;-56
2022/05/25 15:41:56;;;;;;;;;;;;;;;;;;5093604;28;20508;-49
2022/05/25 15:44:22;;;;;;;;;;;;;;;;;;5093605;28;19940;-52
2022/05/25 15:46:49;;;;;;;;;;;;;;;;;;5093306;28;19915;-49
2022/05/25 15:49:17;;;;;;;;;;;;;;;;;;5093722;28;19910;-58
2022/05/25 15:51:43;;;;;;;;;;;;;;;;;;5093628;28;19951;-45
2022/05/25 15:54:10;;;;;;;;;;;;;;;;;;5093452;28;20003;-48
2022/05/25 15:56:36;;;;;;;;;;;;;;;;;;5093314;28;19908;-43
2022/05/25 15:59:02;;;;;;;;;;;;;;;;;;5093337;28;19909;-49
2022/05/25 16:01:29;;;;;;;;;;;;;;;;;;5093404;28;19912;-55
2022/05/25 16:03:55;;;;;;;;;;;;;;;;;;5093436;28;19915;-58
2022/05/25 16:06:22;;;;;;;;;;;;;;;;;;5093133;28;19956;-54
2022/05/25 16:11:33;;;;;;;;;;;;;;;;;;5093430;28;20270;-48
2022/05/25 16:14:02;;;;;;;;;;;;;;;;;;5093158;28;19904;-52
2022/05/25 16:16:29;;;;;;;;;;;;;;;;;;5093231;28;19908;-50
2022/05/25 16:18:55;;;;;;;;;;;;;;;;;;5093381;28;19918;-54
2022/05/25 16:21:22;;;;;;;;;;;;;;;;;;5093300;28;19920;-57
2022/05/25 16:23:48;;;;;;;;;;;;;;;;;;5093292;28;19908;-46
2022/05/25 16:26:16;;;;;;;;;;;;;;;;;;5093302;28;20262;-39
2022/05/25 16:28:49;;;;;;;;;;;;;;;;;;5092884;28;19920;-56
2022/05/25 16:31:16;;;;;;;;;;;;;;;;;;5093262;28;20326;-50
2022/05/25 16:33:42;;;;;;;;;;;;;;;;;;5093143;28;19946;-58
2022/05/25 16:36:09;;;;;;;;;;;;;;;;;;5093289;28;20404;-48
2022/05/25 16:38:35;;;;;;;;;;;;;;;;;;5092849;28;19908;-49
2022/05/25 16:41:02;;;;;;;;;;;;;;;;;;5093143;28;19909;-48
2022/05/25 16:43:28;;;;;;;;;;;;;;;;;;5093107;28;19916;-48
2022/05/25 16:45:55;;;;;;;;;;;;;;;;;;5096863;28;19933;-47
2022/05/25 16:48:21;;;;;;;;;;;;;;;;;;5096977;28;19924;-54
2022/05/25 16:50:48;;;;;;;;;;;;;;;;;;5096770;28;19909;-53
2022/05/25 16:53:14;;;;;;;;;;;;;;;;;;5097126;28;19908;-58
2022/05/25 16:55:41;;;;;;;;;;;;;;;;;;5097076;28;19995;-47
2022/05/25 16:58:09;;;;;;;;;;;;;;;;;;5096921;28;20355;-58
2022/05/25 17:00:35;;;;;;;;;;;;;;;;;;5096828;28;19915;-56
2022/05/25 17:03:02;;;;;;;;;;;;;;;;;;5096960;28;19904;-55
2022/05/25 17:05:28;;;;;;;;;;;;;;;;;;5097186;28;19908;-56
2022/05/25 17:07:55;;;;;;;;;;;;;;;;;;5096586;28;19950;-58
2022/05/25 17:10:23;;;;;;;;;;;;;;;;;;5096639;28;19908;-56
2022/05/25 17:12:50;;;;;;;;;;;;;;;;;;5096442;28;19908;-46
2022/05/25 17:15:16;;;;;;;;;;;;;;;;;;5096761;28;20258;-48
2022/05/25 17:17:43;;;;;;;;;;;;;;;;;;5096581;28;19912;-56
2022/05/25 17:22:54;;;;;;;;;;;;;;;;;;5096543;28;20282;-58